createdAt,value
2019-03-22T00:00:59.961Z,20.33
2019-03-22T00:03:36.839Z,16.00
2019-03-22T00:06:12.693Z,20.30
2019-03-22T00:08:49.415Z,15.50
2019-03-22T00:11:26.444Z,18.60
2019-03-22T00:14:02.091Z,20.37
2019-03-22T00:16:46.974Z,19.57
2019-03-22T00:19:22.810Z,21.50
2019-03-22T00:21:57.497Z,15.33
2019-03-22T00:24:39.228Z,14.70
2019-03-22T00:27:16.744Z,20.23
2019-03-22T00:29:52.986Z,16.97
2019-03-22T00:32:35.202Z,22.73
2019-03-22T00:35:12.503Z,15.30
2019-03-22T00:37:47.703Z,18.50
2019-03-22T00:40:24.789Z,14.90
2019-03-22T00:43:11.103Z,19.63
2019-03-22T00:45:54.118Z,20.43
2019-03-22T00:48:30.983Z,18.43
2019-03-22T00:51:07.447Z,18.17
2019-03-22T00:53:43.712Z,21.07
2019-03-22T00:56:19.771Z,22.73
2019-03-22T00:58:56.500Z,31.50
2019-03-22T01:01:32.706Z,41.63
2019-03-22T01:04:09.987Z,47.53
2019-03-22T01:06:47.900Z,39.90
2019-03-22T01:09:25.996Z,48.57
2019-03-22T01:12:02.521Z,44.80
2019-03-22T01:14:38.930Z,53.50
2019-03-22T01:17:15.012Z,56.80
2019-03-22T01:19:51.510Z,60.90
2019-03-22T01:22:27.922Z,46.57
2019-03-22T01:25:03.981Z,33.13
2019-03-22T01:27:41.438Z,27.20
2019-03-22T01:30:19.777Z,26.17
2019-03-22T01:32:57.077Z,19.67
2019-03-22T01:35:41.122Z,18.80
2019-03-22T01:38:17.373Z,18.80
2019-03-22T01:40:54.045Z,20.90
2019-03-22T01:43:29.898Z,20.00
2019-03-22T01:49:09.457Z,22.53
2019-03-22T01:51:51.507Z,18.80
2019-03-22T01:54:27.713Z,17.90
2019-03-22T01:57:04.180Z,19.80
2019-03-22T01:59:40.529Z,16.23
2019-03-22T02:02:17.137Z,22.13
2019-03-22T02:04:54.408Z,15.87
2019-03-22T02:07:30.052Z,17.40
2019-03-22T02:10:06.115Z,22.27
2019-03-22T02:12:44.546Z,18.97
2019-03-22T02:15:20.540Z,20.20
2019-03-22T02:17:56.581Z,22.53
2019-03-22T02:20:33.817Z,19.70
2019-03-22T02:23:09.875Z,19.60
2019-03-22T02:25:46.140Z,21.50
2019-03-22T02:28:23.893Z,20.57
2019-03-22T02:31:00.931Z,17.57
2019-03-22T02:33:39.251Z,20.20
2019-03-22T02:36:16.103Z,18.17
2019-03-22T02:38:52.979Z,21.13
2019-03-22T02:41:29.050Z,20.47
2019-03-22T02:44:06.939Z,18.93
2019-03-22T02:46:44.845Z,21.33
2019-03-22T02:49:21.560Z,19.87
2019-03-22T02:51:59.824Z,19.63
2019-03-22T02:54:37.133Z,23.13
2019-03-22T02:57:15.020Z,18.83
2019-03-22T02:59:51.620Z,17.10
2019-03-22T03:02:27.595Z,22.10
2019-03-22T03:05:04.558Z,17.47
2019-03-22T03:07:40.881Z,17.57
2019-03-22T03:10:21.463Z,21.63
2019-03-22T03:12:57.561Z,20.60
2019-03-22T03:15:33.589Z,19.10
2019-03-22T03:18:10.235Z,23.33
2019-03-22T03:20:46.564Z,22.80
2019-03-22T03:23:21.937Z,18.73
2019-03-22T03:25:59.015Z,21.50
2019-03-22T03:28:37.186Z,18.23
2019-03-22T03:31:16.044Z,16.67
2019-03-22T03:33:52.103Z,20.63
2019-03-22T03:36:27.589Z,19.83
2019-03-22T03:39:04.221Z,22.93
2019-03-22T03:41:43.533Z,20.03
2019-03-22T03:44:21.049Z,20.10
2019-03-22T03:47:05.519Z,23.17
2019-03-22T03:49:41.590Z,18.00
2019-03-22T03:52:21.923Z,19.03
2019-03-22T03:54:58.792Z,24.40
2019-03-22T03:57:35.260Z,21.90
2019-03-22T04:00:14.183Z,23.97
2019-03-22T04:02:51.070Z,22.83
2019-03-22T04:05:27.592Z,23.53
2019-03-22T04:08:02.969Z,27.60
2019-03-22T04:10:40.579Z,23.43
2019-03-22T04:13:18.615Z,24.37
2019-03-22T04:15:55.583Z,21.77
2019-03-22T04:18:31.909Z,22.23
2019-03-22T04:21:07.603Z,20.73
2019-03-22T04:23:45.050Z,22.67
2019-03-22T04:26:21.923Z,24.87
2019-03-22T04:29:07.129Z,21.07
2019-03-22T04:31:36.088Z,21.97
2019-03-22T04:34:13.617Z,28.77
2019-03-22T04:36:54.188Z,20.87
2019-03-22T04:39:30.815Z,26.43
2019-03-22T04:42:08.100Z,26.03
2019-03-22T04:44:45.632Z,27.80
2019-03-22T04:47:25.545Z,23.10
2019-03-22T04:50:01.827Z,25.60
2019-03-22T04:52:38.885Z,26.00
2019-03-22T04:55:16.629Z,22.00
2019-03-22T04:57:54.886Z,26.13
2019-03-22T05:00:31.157Z,23.97
2019-03-22T05:03:10.594Z,25.60
2019-03-22T05:05:49.206Z,26.60
2019-03-22T05:08:29.154Z,22.83
2019-03-22T05:11:09.685Z,24.40
2019-03-22T05:17:32.112Z,25.53
2019-03-22T05:20:09.165Z,23.13
2019-03-22T05:22:48.604Z,27.10
2019-03-22T05:25:27.213Z,27.20
2019-03-22T05:28:06.969Z,26.40
2019-03-22T05:31:32.191Z,25.23
2019-03-22T05:34:10.902Z,28.97
2019-03-22T05:36:53.113Z,24.83
2019-03-22T05:39:29.607Z,28.77
2019-03-22T05:42:20.157Z,24.60
2019-03-22T05:45:00.721Z,24.23
2019-03-22T05:47:42.523Z,27.33
2019-03-22T05:50:20.003Z,29.53
2019-03-22T05:53:00.973Z,31.97
2019-03-22T05:55:42.151Z,26.70
2019-03-22T05:58:27.225Z,22.13
2019-03-22T06:01:11.266Z,26.97
2019-03-22T06:03:48.694Z,26.97
2019-03-22T06:06:24.665Z,29.80
2019-03-22T06:09:13.975Z,37.17
2019-03-22T06:11:52.288Z,30.50
2019-03-22T06:14:31.214Z,30.03
2019-03-22T06:17:16.670Z,28.07
2019-03-22T06:20:04.671Z,27.63
2019-03-22T06:22:39.696Z,29.80
2019-03-22T06:25:16.677Z,28.77
2019-03-22T06:27:53.207Z,27.57
2019-03-22T06:30:29.881Z,26.40
2019-03-22T06:33:07.171Z,31.73
2019-03-22T06:35:47.323Z,25.00
2019-03-22T06:38:23.182Z,26.47
2019-03-22T06:41:01.278Z,28.70
2019-03-22T06:43:40.672Z,30.37
2019-03-22T06:50:02.160Z,28.67
2019-03-22T06:56:21.034Z,25.33
2019-03-22T07:02:39.633Z,27.97
2019-03-22T07:05:18.433Z,24.87
2019-03-22T07:07:58.586Z,33.23
2019-03-22T07:10:37.928Z,27.80
2019-03-22T07:13:15.617Z,26.13
2019-03-22T07:15:57.793Z,33.33
2019-03-22T07:18:33.875Z,30.17
2019-03-22T07:24:38.285Z,28.57
2019-03-22T07:30:47.057Z,26.83
2019-03-22T07:33:37.058Z,30.73
2019-03-22T07:36:22.930Z,27.47
2019-03-22T07:39:00.012Z,32.37
2019-03-22T07:41:39.142Z,28.60
2019-03-22T07:47:56.008Z,23.63
2019-03-22T07:50:34.084Z,31.10
2019-03-22T07:53:12.030Z,26.57
2019-03-22T07:55:51.315Z,28.47
2019-03-22T07:58:27.884Z,27.53
2019-03-22T08:01:07.217Z,25.80
2019-03-22T08:03:44.104Z,28.23
2019-03-22T08:09:51.353Z,26.90
2019-03-22T08:12:26.550Z,27.83
2019-03-22T08:15:10.180Z,27.20
2019-03-22T08:17:52.378Z,26.50
2019-03-22T08:20:33.144Z,25.23
2019-03-22T08:23:14.944Z,26.87
2019-03-22T08:25:52.014Z,26.43
2019-03-22T08:28:27.874Z,24.97
2019-03-22T08:31:05.692Z,26.10
2019-03-22T08:33:46.127Z,27.90
2019-03-22T08:36:25.880Z,22.67
2019-03-22T08:39:06.241Z,24.87
2019-03-22T08:41:43.673Z,26.80
2019-03-22T08:44:22.049Z,27.10
2019-03-22T08:46:58.514Z,26.93
2019-03-22T08:49:34.486Z,36.90
2019-03-22T08:52:10.710Z,26.40
2019-03-22T08:54:45.697Z,24.80
2019-03-22T08:57:24.985Z,20.83
2019-03-22T09:00:01.684Z,23.37
2019-03-22T09:02:50.673Z,32.40
2019-03-22T09:05:27.901Z,29.03
2019-03-22T09:08:04.165Z,24.70
2019-03-22T09:10:43.636Z,22.13
2019-03-22T09:13:19.962Z,26.73
2019-03-22T09:15:55.201Z,18.57
2019-03-22T09:18:30.349Z,17.97
2019-03-22T09:21:25.714Z,16.07
2019-03-22T09:24:12.297Z,21.23
2019-03-22T09:26:52.200Z,17.17
2019-03-22T09:29:28.721Z,26.80
2019-03-22T09:32:10.257Z,20.60
2019-03-22T09:34:45.774Z,18.47
2019-03-22T09:37:23.708Z,18.00
2019-03-22T09:40:00.462Z,20.23
2019-03-22T09:42:37.705Z,18.43
2019-03-22T09:45:17.933Z,21.13
2019-03-22T09:48:01.010Z,23.47
2019-03-22T09:50:40.063Z,21.00
2019-03-22T09:53:18.203Z,19.93
2019-03-22T09:55:58.017Z,23.73
2019-03-22T09:58:38.529Z,29.37
2019-03-22T10:01:23.512Z,27.07
2019-03-22T10:03:53.776Z,21.27
2019-03-22T10:06:29.106Z,23.57
2019-03-22T10:09:05.479Z,21.27
2019-03-22T10:11:42.246Z,21.77
2019-03-22T10:14:26.759Z,32.63
2019-03-22T10:17:05.669Z,24.37
2019-03-22T10:19:42.350Z,17.67
2019-03-22T10:22:20.199Z,24.87
2019-03-22T10:28:28.286Z,21.47
2019-03-22T10:31:04.074Z,25.67
2019-03-22T10:33:44.242Z,21.47
2019-03-22T10:36:22.196Z,22.23
2019-03-22T10:38:59.430Z,22.97
2019-03-22T10:44:44.750Z,23.30
2019-03-22T10:50:51.517Z,18.83
2019-03-22T10:56:58.116Z,25.40
2019-03-22T10:59:36.427Z,22.47
2019-03-22T11:02:13.742Z,22.17
2019-03-22T11:04:51.743Z,21.43
2019-03-22T11:07:27.741Z,26.63
2019-03-22T11:10:04.531Z,21.70
2019-03-22T11:12:48.985Z,27.60
2019-03-22T11:15:25.453Z,25.97
2019-03-22T11:21:49.040Z,25.77
2019-03-22T11:24:48.052Z,21.50
2019-03-22T11:30:48.277Z,21.10
2019-03-22T11:36:51.395Z,22.73
2019-03-22T11:39:28.266Z,30.20
2019-03-22T11:42:04.792Z,23.37
2019-03-22T11:48:10.110Z,26.50
2019-03-22T11:50:50.258Z,23.37
2019-03-22T11:53:51.710Z,26.40
2019-03-22T12:00:08.803Z,25.00
2019-03-22T12:06:30.284Z,26.10
2019-03-22T12:12:46.298Z,24.40
2019-03-22T12:15:24.400Z,24.93
2019-03-22T12:18:00.794Z,25.90
2019-03-22T12:24:16.263Z,27.10
2019-03-22T12:26:52.117Z,27.67
2019-03-22T12:29:29.200Z,27.83
2019-03-22T12:32:06.077Z,26.50
2019-03-22T12:34:43.158Z,26.40
2019-03-22T12:37:21.262Z,31.90
2019-03-22T12:39:58.345Z,34.77
2019-03-22T12:42:36.663Z,28.10
2019-03-22T12:45:15.850Z,27.97
2019-03-22T12:47:51.023Z,29.13
2019-03-22T12:50:27.696Z,25.83
2019-03-22T12:53:04.369Z,30.30
2019-03-22T12:55:52.310Z,25.83
2019-03-22T12:58:29.389Z,30.00
2019-03-22T13:01:11.185Z,29.00
2019-03-22T13:07:28.432Z,39.00
2019-03-22T13:10:08.386Z,27.07
2019-03-22T13:12:47.094Z,27.87
2019-03-22T13:19:08.018Z,28.20
2019-03-22T13:21:47.351Z,37.93
2019-03-22T13:24:26.088Z,31.30
2019-03-22T13:30:48.448Z,34.67
2019-03-22T13:33:33.259Z,26.87
2019-03-22T13:36:11.407Z,25.23
2019-03-22T13:38:49.314Z,31.47
2019-03-22T13:41:31.034Z,29.43
2019-03-22T13:47:49.061Z,32.37
2019-03-22T13:54:07.223Z,35.40
2019-03-22T13:56:45.319Z,26.37
2019-03-22T13:59:21.376Z,28.33
2019-03-22T14:01:58.666Z,25.13
2019-03-22T14:04:35.540Z,27.50
2019-03-22T14:07:20.199Z,28.37
2019-03-22T14:09:59.124Z,32.10
2019-03-22T14:12:41.138Z,28.50
2019-03-22T14:15:23.152Z,29.17
2019-03-22T14:17:59.388Z,29.33
2019-03-22T14:20:38.555Z,24.93
2019-03-22T14:23:15.601Z,33.20
2019-03-22T14:25:53.715Z,26.83
2019-03-22T14:28:31.618Z,26.47
2019-03-22T14:31:12.161Z,30.60
2019-03-22T14:33:49.659Z,27.33
2019-03-22T14:39:55.432Z,33.97
2019-03-22T14:45:58.553Z,30.93
2019-03-22T14:48:37.259Z,27.10
2019-03-22T14:51:14.844Z,31.57
2019-03-22T14:57:20.324Z,29.93
2019-03-22T14:59:59.254Z,32.63
2019-03-22T15:02:38.370Z,37.27
2019-03-22T15:05:18.316Z,35.30
2019-03-22T15:07:55.399Z,35.80
2019-03-22T15:14:09.366Z,27.83
2019-03-22T15:17:06.312Z,26.20
2019-03-22T15:20:15.341Z,27.20
2019-03-22T15:23:13.428Z,30.10
2019-03-22T15:26:22.851Z,39.10
2019-03-22T15:29:16.438Z,32.50
2019-03-22T15:32:21.162Z,27.27
2019-03-22T15:35:15.910Z,33.13
2019-03-22T15:38:24.150Z,30.10
2019-03-22T15:41:01.853Z,27.83
2019-03-22T15:43:45.433Z,37.83
2019-03-22T15:46:22.469Z,33.73
2019-03-22T15:49:04.060Z,34.17
2019-03-22T15:51:59.184Z,45.70
2019-03-22T15:54:36.900Z,27.73
2019-03-22T15:57:15.174Z,29.90
2019-03-22T15:59:56.869Z,32.03
2019-03-22T16:02:33.895Z,31.90
2019-03-22T16:05:15.431Z,33.60
2019-03-22T16:07:54.347Z,27.70
2019-03-22T16:10:32.464Z,31.57
2019-03-22T16:13:12.399Z,31.53
2019-03-22T16:15:49.074Z,32.93
2019-03-22T16:18:31.484Z,31.67
2019-03-22T16:21:10.881Z,30.23
2019-03-22T16:23:51.172Z,25.63
2019-03-22T16:26:28.292Z,26.13
2019-03-22T16:29:06.876Z,35.00
2019-03-22T16:31:54.719Z,27.17
2019-03-22T16:34:33.427Z,26.47
2019-03-22T16:37:12.145Z,26.00
2019-03-22T16:39:59.471Z,30.43
2019-03-22T16:42:40.855Z,40.77
2019-03-22T16:45:29.819Z,29.07
2019-03-22T16:48:15.288Z,35.13
2019-03-22T16:50:52.780Z,32.60
2019-03-22T16:53:31.501Z,36.40
2019-03-22T16:56:12.474Z,30.00
2019-03-22T16:58:51.401Z,28.57
2019-03-22T17:01:29.297Z,31.63
2019-03-22T17:04:09.452Z,30.67
2019-03-22T17:06:51.653Z,33.97
2019-03-22T17:09:34.060Z,28.17
2019-03-22T17:12:15.172Z,31.20
2019-03-22T17:14:52.940Z,26.80
2019-03-22T17:17:35.755Z,30.67
2019-03-22T17:20:17.753Z,27.00
2019-03-22T17:23:09.275Z,25.43
2019-03-22T17:25:49.726Z,27.60
2019-03-22T17:28:28.652Z,20.87
2019-03-22T17:34:47.941Z,22.00
2019-03-22T17:38:07.014Z,27.70
2019-03-22T17:40:44.499Z,25.07
2019-03-22T17:43:29.994Z,22.77
2019-03-22T17:49:58.485Z,20.67
2019-03-22T17:56:02.374Z,24.93
2019-03-22T18:02:10.654Z,26.43
2019-03-22T18:04:48.539Z,22.63
2019-03-22T18:07:26.745Z,23.87
2019-03-22T18:13:31.393Z,23.33
2019-03-22T18:16:08.496Z,22.83
2019-03-22T18:18:45.168Z,20.23
2019-03-22T18:24:50.612Z,25.20
2019-03-22T18:27:27.694Z,23.00
2019-03-22T18:30:04.779Z,28.87
2019-03-22T18:36:10.548Z,21.00
2019-03-22T18:38:51.738Z,25.77
2019-03-22T18:51:01.881Z,61.70
2019-03-22T18:57:18.474Z,135.60
2019-03-22T19:00:07.187Z,95.10
2019-03-22T19:02:44.112Z,81.83
2019-03-22T19:05:22.303Z,170.37
2019-03-22T19:07:59.918Z,286.87
2019-03-22T19:10:38.300Z,287.83
2019-03-22T19:13:30.404Z,282.93
2019-03-22T19:19:18.608Z,83.37
2019-03-22T19:25:36.872Z,43.73
2019-03-22T19:28:18.869Z,46.77
2019-03-22T19:30:56.773Z,56.07
2019-03-22T19:33:37.318Z,48.70
2019-03-22T19:36:16.682Z,35.80
2019-03-22T19:38:58.877Z,43.97
2019-03-22T19:41:40.877Z,32.27
2019-03-22T19:44:25.741Z,24.80
2019-03-22T19:47:06.909Z,27.00
2019-03-22T19:49:50.346Z,26.27
2019-03-22T19:52:29.890Z,26.73
2019-03-22T19:55:08.602Z,39.27
2019-03-22T19:57:46.923Z,32.60
2019-03-22T20:00:27.324Z,36.40
2019-03-22T20:03:04.552Z,26.03
2019-03-22T20:05:47.330Z,27.83
2019-03-22T20:08:25.331Z,20.97
2019-03-22T20:11:04.809Z,24.47
2019-03-22T20:13:43.936Z,23.57
2019-03-22T20:16:21.635Z,25.97
2019-03-22T20:18:58.337Z,28.70
2019-03-22T20:21:37.864Z,24.10
2019-03-22T20:24:15.540Z,26.40
2019-03-22T20:30:33.614Z,28.83
2019-03-22T20:33:11.911Z,35.30
2019-03-22T20:42:19.162Z,23.00
2019-03-22T20:45:07.397Z,23.50
2019-03-22T20:54:16.971Z,21.60
2019-03-22T20:57:09.840Z,16.63
2019-03-22T21:03:38.960Z,21.47
2019-03-22T21:06:19.924Z,16.63
2019-03-22T21:09:03.996Z,20.47
2019-03-22T21:11:49.546Z,19.17
2019-03-22T21:14:33.761Z,18.80
2019-03-22T21:17:12.808Z,20.97
2019-03-22T21:19:52.141Z,16.63
2019-03-22T21:22:29.395Z,21.77
2019-03-22T21:25:16.161Z,16.40
2019-03-22T21:28:07.272Z,21.30
2019-03-22T21:30:48.322Z,23.30
2019-03-22T21:33:28.381Z,19.67
2019-03-22T21:36:07.601Z,20.43
2019-03-22T21:42:02.927Z,17.27
2019-03-22T21:48:12.184Z,14.13
2019-03-22T21:54:09.764Z,14.90
2019-03-22T22:00:29.078Z,14.13
2019-03-22T22:06:49.993Z,30.40
2019-03-22T22:09:29.946Z,32.07
2019-03-22T22:12:10.681Z,21.97
2019-03-22T22:14:48.518Z,13.60
2019-03-22T22:17:28.037Z,19.23
2019-03-22T22:23:48.146Z,14.90
2019-03-22T22:26:26.703Z,14.93
2019-03-22T22:29:08.248Z,16.10
2019-03-22T22:31:47.991Z,12.33
2019-03-22T22:34:25.075Z,14.60
2019-03-22T22:40:44.683Z,14.57
2019-03-22T22:46:54.243Z,14.97
2019-03-22T22:49:38.078Z,29.37
2019-03-22T22:52:17.212Z,29.63
2019-03-22T22:54:54.504Z,18.57
2019-03-22T22:57:31.159Z,14.50
2019-03-22T23:03:38.995Z,13.30
2019-03-22T23:09:47.220Z,13.40
2019-03-22T23:12:30.245Z,10.10
2019-03-22T23:15:07.107Z,16.37
2019-03-22T23:17:46.237Z,14.97
2019-03-22T23:20:27.006Z,17.10
2019-03-22T23:26:34.712Z,16.83
2019-03-22T23:32:53.097Z,11.60
2019-03-22T23:35:34.294Z,16.43
2019-03-22T23:38:14.011Z,15.50
2019-03-22T23:40:54.708Z,11.83
2019-03-22T23:43:32.270Z,12.90
2019-03-22T23:46:09.555Z,16.73
2019-03-22T23:52:18.414Z,10.23
2019-03-22T23:58:03.299Z,10.83
